Time;durP1;ratioP1;P1;durP2;ratioP2;P2;SDS_P1;SDS_P2;PMS_P1;PMS_P2;Temp;Humidity;BMP_temperature;BMP_pressure;BME280_temperature;BME280_humidity;BME280_pressure;Samples;Min_cycle;Max_cycle;Signal;HPM_P1;HPM_P2
2023/01/29 00:01:30;;;;;;;10.50;6.82;;;;;;;0.81;69.54;97704.41;6246325;23;20482;-76
2023/01/29 00:03:57;;;;;;;9.02;7.50;;;;;;;0.79;69.34;97701.13;6246627;23;20075;-76
2023/01/29 00:06:25;;;;;;;9.60;7.57;;;;;;;0.78;69.42;97698.63;6246282;23;20052;-77
2023/01/29 00:08:52;;;;;;;9.75;7.60;;;;;;;0.75;69.03;97699.66;6246002;23;20043;-77
2023/01/29 00:11:22;;;;;;;10.07;7.45;;;;;;;0.73;68.97;97686.06;6247147;23;20026;-76
2023/01/29 00:13:51;;;;;;;9.55;7.47;;;;;;;0.71;68.96;97695.63;6247638;23;20089;-76
2023/01/29 00:16:19;;;;;;;10.10;7.22;;;;;;;0.72;69.04;97693.88;6246593;23;20055;-76
2023/01/29 00:18:46;;;;;;;10.27;7.70;;;;;;;0.74;69.55;97687.72;6245803;23;20051;-76
2023/01/29 00:21:16;;;;;;;9.38;7.60;;;;;;;0.77;70.39;97690.09;6246517;23;20051;-77
2023/01/29 00:23:44;;;;;;;8.50;7.60;;;;;;;0.77;69.53;97690.09;6247079;23;20024;-77
2023/01/29 00:26:12;;;;;;;8.80;6.82;;;;;;;0.73;68.99;97698.91;6246340;23;20479;-77
2023/01/29 00:28:41;;;;;;;10.50;8.10;;;;;;;0.67;68.74;97695.91;6245699;23;20043;-77
2023/01/29 00:31:09;;;;;;;11.73;7.80;;;;;;;0.62;69.02;97688.47;6246899;23;20026;-76
2023/01/29 00:33:37;;;;;;;9.32;7.57;;;;;;;0.61;69.13;97684.25;6246737;23;20077;-76
2023/01/29 00:36:06;;;;;;;9.82;7.55;;;;;;;0.61;69.10;97695.34;6246562;23;20031;-76
2023/01/29 00:38:34;;;;;;;9.48;7.22;;;;;;;0.64;69.18;97696.91;6245015;23;20034;-76
2023/01/29 00:46:38;;;;;;;8.73;6.70;;;;;;;0.62;68.92;97680.78;6246333;23;20103;-77
2023/01/29 00:49:06;;;;;;;8.95;7.10;;;;;;;0.61;68.96;97684.25;6245632;23;20047;-77
2023/01/29 00:51:34;;;;;;;9.95;7.22;;;;;;;0.58;68.46;97692.97;6246114;23;20498;-76
2023/01/29 00:54:03;;;;;;;10.75;8.23;;;;;;;0.55;68.53;97692.34;6246290;23;20051;-76
2023/01/29 00:56:30;;;;;;;9.52;7.28;;;;;;;0.53;68.90;97694.16;6246912;23;20028;-77
2023/01/29 00:58:59;;;;;;;11.77;7.47;;;;;;;0.50;68.86;97704.59;6246107;23;20345;-77
2023/01/29 01:04:13;;;;;;;9.85;7.55;;;;;;;0.50;68.60;97692.59;6246438;23;20050;-77
2023/01/29 01:06:42;;;;;;;11.93;8.48;;;;;;;0.46;68.73;97687.72;6246055;23;20024;-77
2023/01/29 01:11:55;;;;;;;10.57;7.40;;;;;;;0.43;69.07;97678.47;6246076;23;20062;-75
2023/01/29 01:14:24;;;;;;;9.95;7.57;;;;;;;0.47;69.19;97679.13;6245943;23;20076;-77
2023/01/29 01:16:52;;;;;;;9.30;7.50;;;;;;;0.51;68.99;97678.03;6246156;23;20074;-76
2023/01/29 01:19:19;;;;;;;10.05;7.38;;;;;;;0.51;68.57;97670.34;6244369;23;20016;-77
2023/01/29 01:21:47;;;;;;;10.63;8.43;;;;;;;0.51;68.50;97670.34;6245793;23;20103;-77
2023/01/29 01:24:14;;;;;;;9.55;7.90;;;;;;;0.48;68.43;97662.78;6248023;23;20396;-76
2023/01/29 01:26:42;;;;;;;10.13;7.32;;;;;;;0.48;68.44;97660.22;6247229;23;20020;-76
2023/01/29 01:29:10;;;;;;;6.65;5.38;;;;;;;0.46;67.67;97672.31;6262316;22;20032;-75
2023/01/29 01:31:39;;;;;;;5.13;4.20;;;;;;;0.44;67.23;97663.91;6271575;22;20060;-76
2023/01/29 01:34:06;;;;;;;5.03;4.20;;;;;;;0.43;66.85;97659.69;6270772;22;20016;-76
2023/01/29 01:36:34;;;;;;;5.25;4.70;;;;;;;0.49;68.52;97669.59;6270763;23;20012;-76
2023/01/29 01:39:01;;;;;;;4.05;3.67;;;;;;;0.51;67.53;97672.91;6253587;23;20028;-77
2023/01/29 01:41:29;;;;;;;5.18;4.18;;;;;;;0.52;67.15;97666.84;6246200;23;20379;-77
2023/01/29 01:43:59;;;;;;;5.05;4.45;;;;;;;0.50;66.47;97669.47;6246817;23;20102;-77
2023/01/29 01:46:29;;;;;;;5.00;4.50;;;;;;;0.54;66.95;97670.13;6250833;23;20023;-75
2023/01/29 01:49:01;;;;;;;5.18;3.97;;;;;;;0.60;68.21;97670.59;6270402;23;20012;-75
2023/01/29 01:51:31;;;;;;;8.40;5.60;;;;;;;0.65;67.39;97667.72;6261473;23;20020;-77
2023/01/29 01:54:03;;;;;;;8.32;6.18;;;;;;;0.68;68.06;97662.44;6246681;23;20031;-76
2023/01/29 01:56:39;;;;;;;8.55;6.40;;;;;;;0.74;67.61;97663.78;6246492;23;20020;-76
2023/01/29 01:59:09;;;;;;;8.65;6.97;;;;;;;0.72;66.93;97665.63;6245169;23;20051;-77
2023/01/29 02:01:40;;;;;;;7.75;6.63;;;;;;;0.66;66.86;97659.13;6245723;23;20058;-77
2023/01/29 02:09:51;;;;;;;10.20;6.97;;;;;;;0.57;67.26;97664.84;6245376;23;20055;-77
2023/01/29 02:12:20;;;;;;;8.95;6.72;;;;;;;0.56;67.38;97668.31;6245600;23;20034;-75
2023/01/29 02:14:48;;;;;;;7.63;6.07;;;;;;;0.56;67.47;97670.88;6245482;23;20052;-77
2023/01/29 02:17:19;;;;;;;10.05;7.38;;;;;;;0.56;66.93;97676.00;6245493;23;20020;-77
2023/01/29 02:20:02;;;;;;;8.93;6.28;;;;;;;0.56;66.86;97671.69;6244974;23;20020;-77
2023/01/29 02:22:46;;;;;;;7.63;6.00;;;;;;;0.62;70.42;97667.94;6245957;23;20027;-76
2023/01/29 02:25:35;;;;;;;9.23;7.30;;;;;;;0.67;68.42;97675.34;6247774;23;20387;-76
2023/01/29 02:28:20;;;;;;;8.40;5.95;;;;;;;0.73;69.64;97673.22;6255320;23;20165;-76
2023/01/29 02:30:55;;;;;;;7.60;6.10;;;;;;;0.79;69.02;97674.63;6252069;23;20024;-77
2023/01/29 02:33:31;;;;;;;6.38;5.35;;;;;;;0.79;67.15;97675.44;6245578;23;20020;-77
2023/01/29 02:36:10;;;;;;;8.88;5.90;;;;;;;0.78;67.53;97673.78;6246349;23;20048;-77
2023/01/29 02:38:45;;;;;;;7.07;5.50;;;;;;;0.81;68.69;97681.31;6245258;23;20062;-77
2023/01/29 02:41:16;;;;;;;7.65;5.85;;;;;;;0.84;69.18;97682.03;6247043;23;20027;-76
2023/01/29 02:43:47;;;;;;;6.40;5.50;;;;;;;0.81;67.52;97686.44;6246954;23;20024;-76
2023/01/29 02:46:22;;;;;;;6.93;5.63;;;;;;;0.79;67.55;97682.31;6247170;23;20066;-76
2023/01/29 02:48:57;;;;;;;7.28;5.68;;;;;;;0.79;67.41;97678.00;6246691;23;20099;-76
2023/01/29 02:51:34;;;;;;;6.97;5.78;;;;;;;0.81;67.38;97673.59;6247369;23;20027;-77
2023/01/29 02:54:07;;;;;;;6.82;5.15;;;;;;;0.84;68.67;97687.16;6247152;23;20460;-76
2023/01/29 02:56:38;;;;;;;7.57;5.85;;;;;;;0.87;70.52;97677.50;6247335;23;20062;-76
2023/01/29 02:59:11;;;;;;;6.65;5.38;;;;;;;0.91;70.40;97673.03;6246330;23;20026;-76
2023/01/29 03:01:44;;;;;;;5.80;4.93;;;;;;;0.90;70.74;97671.38;6247206;23;20102;-76
2023/01/29 03:04:18;;;;;;;5.72;4.78;;;;;;;0.90;69.53;97672.19;6246689;23;20099;-76
2023/01/29 03:06:50;;;;;;;6.68;5.18;;;;;;;0.90;69.42;97668.81;6246658;23;20578;-76
2023/01/29 03:09:24;;;;;;;6.95;6.07;;;;;;;0.88;67.94;97662.94;6246343;23;20030;-76
2023/01/29 03:11:54;;;;;;;7.22;6.10;;;;;;;0.80;67.59;97671.94;6247602;23;20035;-76
2023/01/29 03:15:10;;;;;;;7.35;6.28;;;;;;;0.77;67.69;97669.56;6246756;23;20023;-76
2023/01/29 03:17:33;;;;;;;6.75;5.82;;;;;;;0.72;66.69;97661.31;6246449;23;20022;-76
2023/01/29 03:20:06;;;;;;;7.80;5.90;;;;;;;0.74;69.13;97658.63;6246534;23;20119;-76
2023/01/29 03:22:37;;;;;;;7.68;6.05;;;;;;;0.81;70.41;97653.06;6246640;23;20095;-76
2023/01/29 03:33:42;;;;;;;7.07;5.78;;;;;;;0.86;70.02;97659.66;6247124;23;20020;-77
2023/01/29 03:36:14;;;;;;;5.47;4.85;;;;;;;0.86;68.88;97657.09;6246574;23;20052;-77
2023/01/29 03:38:42;;;;;;;7.22;5.35;;;;;;;0.86;69.86;97662.22;6245628;23;20338;-77
2023/01/29 03:41:18;;;;;;;6.72;5.38;;;;;;;0.88;69.40;97666.34;6246970;23;20024;-77
2023/01/29 03:43:52;;;;;;;7.78;6.78;;;;;;;0.90;70.11;97667.06;6246894;23;20020;-77
2023/01/29 03:46:28;;;;;;;6.95;5.78;;;;;;;0.94;71.29;97668.53;6246744;23;20409;-76
2023/01/29 03:49:01;;;;;;;8.05;5.97;;;;;;;0.98;72.74;97675.13;6245829;23;20027;-76
2023/01/29 03:51:34;;;;;;;8.45;6.07;;;;;;;1.00;70.84;97675.00;6247543;23;20098;-76
2023/01/29 03:54:09;;;;;;;7.40;6.15;;;;;;;1.01;72.89;97674.09;6246717;23;20046;-76
2023/01/29 03:56:50;;;;;;;8.13;6.07;;;;;;;1.05;73.20;97672.16;6246834;23;20026;-76
2023/01/29 03:59:39;;;;;;;7.30;6.15;;;;;;;1.08;73.50;97675.38;6245769;23;20024;-77
2023/01/29 04:02:12;;;;;;;6.57;5.20;;;;;;;1.04;70.43;97668.75;6246315;23;20024;-76
2023/01/29 04:04:42;;;;;;;;;;;;;;;1.00;67.90;97677.59;6247627;23;20020;-77
2023/01/29 04:07:13;;;;;;;6.05;5.05;;;;;;;0.93;69.77;97681.47;6246693;23;19959;-76
2023/01/29 04:09:47;;;;;;;6.72;5.20;;;;;;;0.88;68.64;97689.44;6245602;23;20070;-77
2023/01/29 04:12:20;;;;;;;6.25;5.28;;;;;;;0.85;69.08;97683.66;6247103;23;20027;-76
2023/01/29 04:14:49;;;;;;;6.45;5.70;;;;;;;0.89;70.50;97682.56;6246328;23;20024;-77
2023/01/29 04:17:23;;;;;;;5.53;4.85;;;;;;;0.87;68.23;97681.84;6246481;23;20020;-76
2023/01/29 04:19:50;;;;;;;6.82;5.43;;;;;;;0.85;69.14;97674.22;6245941;23;20024;-77
2023/01/29 04:22:22;;;;;;;6.63;5.50;;;;;;;0.89;71.11;97675.69;6246228;23;20103;-77
2023/01/29 04:24:51;;;;;;;7.15;5.80;;;;;;;0.92;70.46;97688.34;6247007;23;20020;-77
2023/01/29 04:27:28;;;;;;;7.85;5.93;;;;;;;0.93;71.30;97691.75;6245940;23;20020;-76
2023/01/29 04:30:10;;;;;;;8.65;6.82;;;;;;;0.98;74.17;97680.28;6245420;23;20464;-76
2023/01/29 04:32:54;;;;;;;8.93;6.55;;;;;;;1.04;74.07;97689.31;6253723;23;20063;-76
2023/01/29 04:35:31;;;;;;;6.93;5.82;;;;;;;1.03;72.86;97685.13;6271096;23;20047;-76
2023/01/29 04:38:11;;;;;;;7.07;5.57;;;;;;;1.05;70.64;97690.13;6254372;23;20099;-76
2023/01/29 04:40:50;;;;;;;7.05;5.70;;;;;;;1.03;71.86;97687.69;6247087;23;20102;-76
2023/01/29 04:43:26;;;;;;;7.53;6.03;;;;;;;1.08;72.68;97688.22;6246709;23;20023;-76
2023/01/29 04:46:08;;;;;;;5.43;4.72;;;;;;;1.03;68.25;97688.50;6246306;23;20048;-76
2023/01/29 04:48:49;;;;;;;7.37;5.40;;;;;;;0.99;71.43;97694.75;6245698;23;20028;-77
2023/01/29 04:51:21;;;;;;;7.07;5.75;;;;;;;0.97;69.36;97688.06;6246607;23;20624;-76
2023/01/29 04:53:56;;;;;;;7.03;5.65;;;;;;;0.90;70.61;97677.34;6246248;23;20026;-77
2023/01/29 04:56:31;;;;;;;7.07;5.18;;;;;;;0.90;70.39;97679.91;6245979;23;20457;-76
2023/01/29 04:59:04;;;;;;;7.38;5.63;;;;;;;0.91;71.20;97683.28;6244774;23;20022;-76
2023/01/29 05:01:35;;;;;;;8.13;5.95;;;;;;;0.95;71.53;97672.72;6245898;23;20020;-76
2023/01/29 05:04:07;;;;;;;9.80;6.97;;;;;;;0.99;73.09;97668.25;6247001;23;20020;-77
2023/01/29 05:06:36;;;;;;;8.95;6.18;;;;;;;1.00;71.13;97669.88;6246494;23;20027;-77
2023/01/29 05:09:04;;;;;;;6.88;5.57;;;;;;;0.97;70.32;97672.66;6245391;23;20047;-77
2023/01/29 05:11:33;;;;;;;7.65;6.60;;;;;;;0.97;71.06;97664.94;6246295;23;20248;-76
2023/01/29 05:14:03;;;;;;;8.88;7.05;;;;;;;0.98;72.36;97667.41;6245693;23;20099;-77
2023/01/29 05:16:40;;;;;;;8.02;6.13;;;;;;;0.99;72.15;97666.50;6245605;23;20493;-76
2023/01/29 05:19:13;;;;;;;8.00;6.20;;;;;;;0.94;70.48;97673.66;6245024;23;20020;-77
2023/01/29 05:21:44;;;;;;;9.02;6.90;;;;;;;0.95;71.60;97677.06;6246491;23;20099;-76
2023/01/29 05:24:14;;;;;;;12.18;6.55;;;;;;;0.96;71.88;97676.13;6246307;23;20027;-77
2023/01/29 05:29:27;;;;;;;9.73;6.80;;;;;;;0.96;72.36;97686.41;6245340;23;20102;-76
2023/01/29 05:31:55;;;;;;;7.85;6.18;;;;;;;0.95;70.67;97687.34;6246445;23;20103;-77
2023/01/29 05:34:24;;;;;;;8.18;6.55;;;;;;;0.91;71.80;97683.28;6246023;23;20063;-76
2023/01/29 05:36:51;;;;;;;8.43;6.57;;;;;;;0.89;70.74;97685.13;6245596;23;20026;-76
2023/01/29 05:39:19;;;;;;;9.00;6.47;;;;;;;0.89;71.11;97685.13;6245262;23;20024;-76
2023/01/29 05:41:47;;;;;;;9.38;7.10;;;;;;;0.88;69.86;97686.88;6246111;23;20103;-76
2023/01/29 05:44:14;;;;;;;8.98;6.95;;;;;;;0.89;69.64;97690.28;6245878;23;20020;-76
2023/01/29 05:46:42;;;;;;;8.60;6.70;;;;;;;0.85;69.25;97688.81;6245656;23;20388;-77
2023/01/29 05:49:10;;;;;;;9.15;6.70;;;;;;;0.82;70.13;97685.50;6253556;23;20023;-77
2023/01/29 05:51:39;;;;;;;9.48;7.28;;;;;;;0.76;68.44;97679.91;6251430;23;20047;-76
2023/01/29 05:54:06;;;;;;;6.93;6.22;;;;;;;0.67;68.18;97671.03;6247314;23;20026;-76
2023/01/29 05:56:34;;;;;;;10.13;7.50;;;;;;;0.58;69.37;97664.72;6247123;23;20095;-76
2023/01/29 05:59:01;;;;;;;10.65;7.85;;;;;;;0.58;71.09;97645.94;6245942;23;20135;-77
2023/01/29 06:01:29;;;;;;;8.02;6.40;;;;;;;0.55;69.18;97648.69;6246478;23;20102;-76
2023/01/29 06:03:57;;;;;;;8.60;6.72;;;;;;;0.52;69.11;97641.97;6245348;23;20024;-76
2023/01/29 06:06:24;;;;;;;10.82;7.65;;;;;;;0.54;70.77;97635.00;6245635;23;20022;-77
2023/01/29 06:08:53;;;;;;;10.90;7.57;;;;;;;0.60;72.15;97638.94;6245312;23;20397;-77
2023/01/29 06:11:20;;;;;;;12.50;8.30;;;;;;;0.64;72.77;97629.34;6245955;23;20024;-77
2023/01/29 06:13:48;;;;;;;13.00;7.45;;;;;;;0.66;71.89;97625.75;6247008;23;20020;-77
2023/01/29 06:16:16;;;;;;;12.07;8.20;;;;;;;0.64;69.62;97624.19;6247594;23;20020;-77
2023/01/29 06:18:43;;;;;;;10.65;7.63;;;;;;;0.61;70.75;97625.19;6246690;23;20027;-77
2023/01/29 06:21:13;;;;;;;12.85;7.75;;;;;;;0.65;73.10;97629.22;6247743;23;20348;-77
2023/01/29 06:23:41;;;;;;;11.00;7.97;;;;;;;0.68;72.35;97630.75;6248171;23;20389;-77
2023/01/29 06:26:12;;;;;;;10.90;7.00;;;;;;;0.61;69.13;97635.47;6247147;23;20099;-77
2023/01/29 06:28:40;;;;;;;10.45;7.53;;;;;;;0.54;70.51;97635.00;6246726;23;20022;-77
2023/01/29 06:31:08;;;;;;;10.82;7.50;;;;;;;0.51;71.57;97634.38;6247846;23;20028;-76
2023/01/29 06:33:55;;;;;;;9.38;7.00;;;;;;;0.52;71.26;97643.72;6246757;23;20464;-77
2023/01/29 06:36:23;;;;;;;11.35;7.85;;;;;;;0.50;71.63;97651.50;6246912;23;20028;-77
2023/01/29 06:38:51;;;;;;;10.75;6.88;;;;;;;0.49;70.55;97657.56;6245934;23;20024;-77
2023/01/29 06:41:24;;;;;;;10.00;7.50;;;;;;;0.40;68.54;97656.38;6247604;23;20024;-77
2023/01/29 06:43:51;;;;;;;10.98;7.15;;;;;;;0.32;68.89;97666.28;6247475;23;20020;-77
2023/01/29 06:46:19;;;;;;;8.77;6.40;;;;;;;0.30;69.22;97657.84;6247533;23;20023;-77
2023/01/29 06:48:47;;;;;;;11.23;7.32;;;;;;;0.33;70.66;97660.25;6246466;23;20067;-77
2023/01/29 06:51:14;;;;;;;9.85;7.60;;;;;;;0.36;70.78;97662.63;6247761;23;20027;-76
2023/01/29 06:53:42;;;;;;;13.00;8.93;;;;;;;0.39;71.43;97675.28;6247344;23;20421;-76
2023/01/29 06:56:12;;;;;;;11.85;8.38;;;;;;;0.43;72.40;97670.78;6247479;23;20020;-77
2023/01/29 06:58:42;;;;;;;11.10;7.97;;;;;;;0.47;73.47;97669.69;6246959;23;20456;-76
2023/01/29 07:01:11;;;;;;;10.63;7.30;;;;;;;0.50;72.49;97671.22;6247181;23;20016;-77
2023/01/29 07:03:59;;;;;;;12.70;8.00;;;;;;;0.55;72.38;97672.63;6246635;23;20025;-77
2023/01/29 07:06:28;;;;;;;11.25;7.90;;;;;;;0.57;72.67;97680.22;6247925;23;20527;-76
2023/01/29 07:08:55;;;;;;;11.93;8.30;;;;;;;0.60;73.66;97683.41;6246698;23;20024;-77
2023/01/29 07:11:23;;;;;;;13.25;8.32;;;;;;;0.66;73.99;97684.00;6247472;23;20055;-77
2023/01/29 07:13:52;;;;;;;13.15;7.90;;;;;;;0.70;74.31;97685.44;6247535;23;20099;-76
2023/01/29 07:16:19;;;;;;;11.88;8.07;;;;;;;0.71;74.15;97677.63;6247582;23;20099;-76
2023/01/29 07:18:47;;;;;;;12.02;8.43;;;;;;;0.73;73.73;97682.69;6258189;23;20032;-75
2023/01/29 07:21:15;;;;;;;11.88;8.55;;;;;;;0.74;73.62;97687.72;6273283;23;20019;-76
2023/01/29 07:23:42;;;;;;;9.43;6.85;;;;;;;0.75;73.90;97686.00;6257263;23;20072;-76
2023/01/29 07:26:11;;;;;;;9.45;7.47;;;;;;;0.72;72.68;97689.56;6247219;23;20469;-77
2023/01/29 07:28:39;;;;;;;9.88;7.40;;;;;;;0.71;72.53;97687.91;6247013;23;20016;-77
2023/01/29 07:31:11;;;;;;;10.48;7.05;;;;;;;0.69;71.39;97692.31;6268634;22;20047;-75
2023/01/29 07:33:39;;;;;;;10.10;6.93;;;;;;;0.67;71.02;97681.31;6272583;22;20024;-76
2023/01/29 07:36:08;;;;;;;10.50;6.82;;;;;;;0.68;72.50;97682.13;6272097;22;20023;-76
2023/01/29 07:38:35;;;;;;;8.40;6.85;;;;;;;0.69;71.58;97683.78;6271007;22;20027;-76
2023/01/29 07:41:03;;;;;;;11.25;7.47;;;;;;;0.72;72.14;97687.00;6250227;23;20016;-77
2023/01/29 07:43:31;;;;;;;9.00;6.90;;;;;;;0.75;73.34;97689.38;6247163;23;20408;-77
2023/01/29 07:46:02;;;;;;;10.70;7.70;;;;;;;0.78;73.78;97691.75;6246652;23;20024;-77
2023/01/29 07:48:31;;;;;;;10.52;7.65;;;;;;;0.78;71.71;97683.22;6246037;23;20047;-77
2023/01/29 07:50:58;;;;;;;11.18;7.55;;;;;;;0.77;72.08;97686.72;6246723;23;20112;-77
2023/01/29 07:53:27;;;;;;;10.10;6.93;;;;;;;0.80;71.64;97696.78;6247059;23;20020;-77
2023/01/29 07:55:54;;;;;;;11.25;8.30;;;;;;;0.77;70.47;97694.44;6247166;23;20348;-77
2023/01/29 07:58:22;;;;;;;13.25;8.63;;;;;;;0.76;72.69;97696.16;6245752;23;20058;-77
2023/01/29 08:00:50;;;;;;;13.05;9.02;;;;;;;0.77;72.66;97697.81;6247292;23;20031;-77
2023/01/29 08:03:19;;;;;;;10.15;7.47;;;;;;;0.80;73.65;97701.94;6246637;23;20487;-77
2023/01/29 08:05:48;;;;;;;11.50;7.30;;;;;;;0.82;72.46;97700.91;6246201;23;20481;-77
2023/01/29 08:08:18;;;;;;;12.65;8.60;;;;;;;0.86;73.40;97701.56;6245768;23;20537;-77
2023/01/29 08:10:45;;;;;;;11.60;8.05;;;;;;;0.88;73.03;97704.06;6246840;23;20471;-76
2023/01/29 08:13:13;;;;;;;13.60;9.32;;;;;;;0.90;73.69;97697.06;6246806;23;20091;-77
2023/01/29 08:15:43;;;;;;;15.13;9.55;;;;;;;0.89;73.59;97703.13;6246980;23;20016;-77
2023/01/29 08:18:12;;;;;;;10.38;7.38;;;;;;;0.82;71.12;97711.19;6245719;23;20223;-77
2023/01/29 08:20:39;;;;;;;11.05;7.47;;;;;;;0.80;70.66;97702.75;6247204;23;20024;-76
2023/01/29 08:23:16;;;;;;;11.30;7.85;;;;;;;0.81;71.39;97703.59;6247381;23;20456;-76
2023/01/29 08:25:44;;;;;;;11.50;8.00;;;;;;;0.78;69.57;97707.16;6247049;23;20080;-76
2023/01/29 08:28:11;;;;;;;9.40;6.60;;;;;;;0.76;69.31;97706.41;6245695;23;20052;-76
2023/01/29 08:30:39;;;;;;;11.60;7.68;;;;;;;0.76;68.67;97715.88;6246135;23;20112;-77
2023/01/29 08:33:07;;;;;;;11.57;7.88;;;;;;;0.76;70.74;97714.13;6246636;23;20452;-77
2023/01/29 08:35:34;;;;;;;11.48;7.75;;;;;;;0.81;71.59;97719.81;6245996;23;20051;-77
2023/01/29 08:38:04;;;;;;;10.95;7.15;;;;;;;0.85;71.84;97717.88;6244945;23;20409;-76
2023/01/29 08:40:34;;;;;;;10.75;7.47;;;;;;;0.87;71.49;97728.88;6246284;23;20055;-77
2023/01/29 08:43:03;;;;;;;11.00;7.43;;;;;;;0.89;70.49;97728.81;6246671;23;20031;-77
2023/01/29 08:45:36;;;;;;;10.73;7.47;;;;;;;0.87;69.05;97723.75;6246487;23;20020;-77
2023/01/29 08:48:04;;;;;;;10.80;7.72;;;;;;;0.85;68.32;97735.03;6245701;23;20461;-77
2023/01/29 08:50:33;;;;;;;10.82;7.72;;;;;;;0.88;71.10;97732.31;6245950;23;20023;-77
2023/01/29 08:53:03;;;;;;;12.27;8.25;;;;;;;0.90;71.40;97738.19;6246726;23;20018;-77
2023/01/29 08:55:30;;;;;;;12.70;7.65;;;;;;;0.90;72.17;97744.13;6246127;23;20026;-76
2023/01/29 08:57:59;;;;;;;9.27;7.45;;;;;;;0.92;70.00;97742.28;6245372;23;20043;-77
2023/01/29 09:00:27;;;;;;;11.73;8.20;;;;;;;0.88;70.29;97743.41;6246510;23;20020;-77
2023/01/29 09:02:54;;;;;;;11.82;7.82;;;;;;;0.87;69.82;97749.44;6246102;23;20056;-77
2023/01/29 09:05:22;;;;;;;10.52;6.90;;;;;;;0.84;68.14;97746.25;6246967;23;20020;-77
2023/01/29 09:07:49;;;;;;;12.43;7.82;;;;;;;0.78;67.44;97748.25;6245297;23;20357;-77
2023/01/29 09:10:19;;;;;;;10.52;7.80;;;;;;;0.75;68.52;97745.88;6246667;23;20028;-76
2023/01/29 09:12:47;;;;;;;12.25;8.43;;;;;;;0.77;69.00;97748.38;6246779;23;20472;-77
2023/01/29 09:15:16;;;;;;;10.73;7.05;;;;;;;0.75;67.78;97745.06;6246789;23;20035;-76
2023/01/29 09:17:44;;;;;;;12.02;7.80;;;;;;;0.74;68.28;97751.91;6246907;23;20515;-76
2023/01/29 09:20:12;;;;;;;11.48;7.80;;;;;;;0.73;68.67;97750.28;6246844;23;20042;-77
2023/01/29 09:22:40;;;;;;;14.82;7.85;;;;;;;0.73;67.65;97757.97;6246139;23;20102;-77
2023/01/29 09:25:09;;;;;;;10.40;6.97;;;;;;;0.77;67.71;97756.88;6245967;23;20456;-76
2023/01/29 09:27:37;;;;;;;9.48;6.30;;;;;;;0.79;66.77;97752.47;6246385;23;20066;-76
2023/01/29 09:30:06;;;;;;;8.73;6.85;;;;;;;0.79;65.67;97749.91;6245002;23;20059;-77
2023/01/29 09:32:35;;;;;;;10.43;6.97;;;;;;;0.84;67.76;97746.25;6245612;23;20099;-77
2023/01/29 09:35:21;;;;;;;9.25;7.22;;;;;;;0.90;69.05;97741.56;6246211;23;20090;-77
2023/01/29 09:37:49;;;;;;;10.70;7.93;;;;;;;0.95;69.34;97751.56;6245525;23;20027;-79
2023/01/29 09:40:25;;;;;;;8.88;6.80;;;;;;;0.96;66.88;97753.19;6246331;23;20027;-79
2023/01/29 09:43:00;;;;;;;9.70;6.68;;;;;;;0.96;66.28;97745.50;6246610;23;20020;-79
2023/01/29 09:45:29;;;;;;;9.95;6.93;;;;;;;0.98;67.94;97746.22;6246290;23;20027;-79
2023/01/29 09:48:00;;;;;;;9.45;7.22;;;;;;;1.01;69.06;97748.63;6246216;23;20024;-78
2023/01/29 09:50:32;;;;;;;9.57;7.60;;;;;;;1.07;69.49;97737.94;6248288;23;20074;-79
2023/01/29 09:53:05;;;;;;;9.50;6.10;;;;;;;1.12;70.33;97746.22;6248252;23;20062;-79
2023/01/29 09:55:35;;;;;;;;;;;;;;;1.18;70.12;97745.84;6248566;23;20012;-79
2023/01/29 09:58:11;;;;;;;10.27;6.82;;;;;;;1.16;66.73;97729.69;6247090;23;19946;-79
2023/01/29 10:00:49;;;;;;;8.35;6.80;;;;;;;1.14;67.65;97721.25;6248337;23;20024;-79
2023/01/29 10:03:32;;;;;;;9.25;6.97;;;;;;;1.14;65.61;97716.09;6249511;23;20024;-79
2023/01/29 10:06:15;;;;;;;10.18;6.88;;;;;;;1.12;66.32;97712.81;6268084;23;20020;-79
2023/01/29 10:09:14;;;;;;;12.07;7.28;;;;;;;1.13;69.29;97713.63;6259291;23;20452;-79
2023/01/29 10:11:49;;;;;;;8.70;6.60;;;;;;;1.19;70.48;97708.09;6250580;23;20054;-79
2023/01/29 10:14:25;;;;;;;11.23;8.05;;;;;;;1.27;70.95;97705.03;6249330;23;20103;-79
2023/01/29 10:17:08;;;;;;;8.65;6.97;;;;;;;1.29;67.33;97687.78;6249184;23;20016;-78
2023/01/29 10:19:52;;;;;;;;;;;;;;;1.33;66.32;97690.06;6247902;23;20020;-79
2023/01/29 10:22:32;;;;;;;10.75;7.28;;;;;;;1.34;65.81;97675.47;6248381;23;20340;-80
2023/01/29 10:25:03;;;;;;;9.15;7.13;;;;;;;1.36;68.64;97676.22;6249183;23;20020;-79
2023/01/29 10:27:33;;;;;;;9.98;7.38;;;;;;;1.42;67.86;97683.50;6249555;23;20405;-79
2023/01/29 10:30:08;;;;;;;10.02;7.75;;;;;;;1.43;65.93;97673.13;6249541;23;20281;-79
2023/01/29 10:32:37;;;;;;;9.70;7.25;;;;;;;1.49;66.99;97664.22;6249674;23;20119;-79
2023/01/29 10:35:17;;;;;;;13.02;8.30;;;;;;;1.58;66.99;97666.19;6249341;23;20459;-79
2023/01/29 10:37:45;;;;;;;10.25;7.55;;;;;;;1.68;67.86;97657.88;6247216;23;20463;-79
2023/01/29 10:40:20;;;;;;;9.38;7.13;;;;;;;1.74;66.98;97667.75;6248985;23;20099;-79
2023/01/29 10:42:57;;;;;;;9.68;6.93;;;;;;;1.83;68.32;97667.97;6248933;23;20027;-79
2023/01/29 10:45:33;;;;;;;11.73;7.60;;;;;;;1.89;66.37;97674.47;6249347;23;20027;-80
2023/01/29 10:48:24;;;;;;;11.35;8.27;;;;;;;1.92;67.75;97681.97;6247672;23;20038;-79
2023/01/29 10:51:01;;;;;;;11.23;8.00;;;;;;;1.98;68.89;97691.06;6248059;23;20099;-79
2023/01/29 10:53:48;;;;;;;10.27;7.43;;;;;;;2.05;69.49;97682.81;6250391;23;20024;-79
2023/01/29 10:56:33;;;;;;;11.93;8.52;;;;;;;2.11;66.66;97670.47;6247447;23;20099;-78
2023/01/29 10:59:04;;;;;;;10.02;7.65;;;;;;;2.13;66.94;97663.47;6246692;23;20020;-78
2023/01/29 11:01:31;;;;;;;10.57;7.85;;;;;;;2.15;67.46;97666.78;6247636;23;20039;-79
2023/01/29 11:04:02;;;;;;;11.93;9.07;;;;;;;2.18;68.56;97674.28;6247153;23;20127;-78
2023/01/29 11:06:33;;;;;;;11.98;8.70;;;;;;;2.23;69.53;97669.63;6247327;23;20099;-79
2023/01/29 11:09:07;;;;;;;11.05;7.90;;;;;;;2.22;66.12;97662.84;6246681;23;20025;-79
2023/01/29 11:11:41;;;;;;;12.32;8.48;;;;;;;2.20;67.46;97665.53;6248133;23;20055;-79
2023/01/29 11:14:14;;;;;;;9.68;7.50;;;;;;;2.23;68.14;97664.50;6246886;23;20038;-79
2023/01/29 11:16:44;;;;;;;10.90;8.13;;;;;;;2.26;67.17;97664.28;6246899;23;20034;-79
2023/01/29 11:19:12;;;;;;;10.90;7.57;;;;;;;2.29;66.81;97664.06;6246187;23;20090;-78
2023/01/29 11:21:57;;;;;;;13.00;7.75;;;;;;;2.33;65.90;97655.22;6247763;23;20024;-78
2023/01/29 11:24:25;;;;;;;11.07;8.10;;;;;;;2.36;65.77;97664.47;6247572;23;20066;-80
2023/01/29 11:26:56;;;;;;;12.00;8.05;;;;;;;2.32;64.50;97663.88;6247116;23;20020;-79
2023/01/29 11:29:33;;;;;;;11.60;8.00;;;;;;;2.31;64.85;97651.94;6246971;23;20103;-77
2023/01/29 11:32:04;;;;;;;10.60;7.63;;;;;;;2.34;66.90;97649.16;6246604;23;20024;-77
2023/01/29 11:34:32;;;;;;;12.88;8.80;;;;;;;2.37;66.76;97651.50;6247309;23;20471;-77
2023/01/29 11:37:03;;;;;;;11.80;8.45;;;;;;;2.37;67.18;97651.50;6246532;23;20054;-77
2023/01/29 11:39:32;;;;;;;12.35;8.60;;;;;;;2.36;66.69;97649.03;6245963;23;20043;-77
2023/01/29 11:42:02;;;;;;;12.43;8.05;;;;;;;2.36;64.95;97643.88;6246863;23;20099;-77
2023/01/29 11:44:32;;;;;;;12.63;7.90;;;;;;;2.36;65.60;97646.47;6247255;23;20375;-76
2023/01/29 11:47:11;;;;;;;15.88;7.70;;;;;;;2.34;63.36;97641.44;6246724;23;20051;-77
2023/01/29 11:49:44;;;;;;;12.40;8.73;;;;;;;2.35;66.18;97640.50;6246169;23;20095;-77
2023/01/29 11:52:15;;;;;;;11.48;8.30;;;;;;;2.38;66.76;97642.03;6247185;23;20423;-77
2023/01/29 11:54:47;;;;;;;11.88;8.35;;;;;;;2.39;67.27;97629.06;6246892;23;20334;-77
2023/01/29 11:57:24;;;;;;;10.73;8.03;;;;;;;2.38;66.82;97624.81;6247125;23;20024;-76
2023/01/29 11:59:53;;;;;;;11.02;7.82;;;;;;;2.37;66.72;97619.81;6245754;23;20488;-76
2023/01/29 12:02:26;;;;;;;10.40;7.60;;;;;;;2.34;63.63;97614.84;6246606;23;20024;-77
2023/01/29 12:04:58;;;;;;;10.77;8.43;;;;;;;2.30;64.00;97614.25;6246114;23;20104;-77
2023/01/29 12:07:28;;;;;;;11.15;8.43;;;;;;;2.37;66.15;97605.16;6246244;23;20120;-77
2023/01/29 12:09:57;;;;;;;10.77;7.47;;;;;;;2.53;66.09;97593.81;6245876;23;20020;-77
2023/01/29 12:12:32;;;;;;;13.27;8.18;;;;;;;2.58;66.05;97584.84;6246490;23;20106;-77
2023/01/29 12:15:18;;;;;;;11.07;7.47;;;;;;;2.61;66.52;97581.22;6246721;23;20074;-77
2023/01/29 12:17:53;;;;;;;12.52;7.40;;;;;;;2.66;66.67;97568.81;6240318;23;20076;-76
2023/01/29 12:20:27;;;;;;;11.50;7.80;;;;;;;2.69;63.90;97558.31;6246315;23;20106;-77
2023/01/29 12:23:04;;;;;;;12.98;7.78;;;;;;;2.82;66.58;97555.66;6246428;23;20099;-77
2023/01/29 12:25:44;;;;;;;10.38;7.88;;;;;;;2.93;65.18;97554.91;6246366;23;20417;-77
2023/01/29 12:28:35;;;;;;;9.10;6.90;;;;;;;2.94;65.25;97551.41;6245220;23;20024;-77